ADDS METAR Data INFO
IDs: Format: Raw Decoded Include TAF

Data at: 2054 UTC 24 Jun 2017

K66R 242035Z AUTO 01005KT 10SM SCT008 SCT011 24/22 A3007 RMK AO2 T02360223
K66R 242015Z AUTO 36005KT 10SM -DZ OVC008 23/22 A3009 RMK AO2 T02320220
K66R 241955Z AUTO 36007KT 10SM -RA SCT008 BKN012 OVC030 23/22 A3010 RMK AO2 P0002 T02330222
K66R 241935Z AUTO 32007KT 10SM -DZ SCT005 BKN017 OVC024 24/23 A3012 RMK AO2 LTG DSNT SW P0001 T02360227
K66R 241915Z AUTO 31004KT 10SM -RA BKN005 BKN009 OVC019 24/23 A3013 RMK AO2 LTG DSNT SW P0001 T02370229
K66R 241855Z AUTO 00000KT 10SM -RA BKN005 BKN012 OVC048 24/23 A3012 RMK AO2 P0002 T02360226
K66R 241835Z AUTO 13003KT 10SM RA SCT005 BKN014 OVC048 23/23 A3011 RMK AO2 LTG DSNT E P0001 T02340226
K66R 241815Z AUTO 00000KT 10SM -RA SCT018 BKN048 OVC075 23/22 A3010 RMK AO2 LTG DSNT SW P0001 T02330224
K66R 241755Z AUTO 00000KT 7SM -RA SCT003 BKN075 OVC090 23/22 A3011 RMK AO2 LTG DSNT SW AND W P0011 60047 T02320224 10260 20228
K66R 241735Z AUTO 00000KT 5SM RA SCT005 SCT022 OVC090 23/22 A3011 RMK AO2 LTG DSNT SE AND SW P0009 T02310222
K66R 241715Z AUTO 00000KT 2 1/2SM VCTSRA SCT006 BKN065 OVC090 23/22 A3012 RMK AO2 LTG DSNT ALQS P0005 T02300220
K66R 241655Z AUTO 00000KT 2SM +VCTSRA SCT006 BKN050 OVC085 23/22 A3013 RMK AO2 VIS 1V4 LTG DSNT SE THRU W P0023 T02290220
K66R 241635Z AUTO 00000KT 2 1/2SM VCTSRA SCT043 BKN060 OVC085 23/22 A3011 RMK AO2 LTG DSNT ALQS P0015 T02300220
K66R 241615Z AUTO 00000KT 3SM +TSRA SCT075 OVC090 23/22 A3010 RMK AO2 LTG DSNT ALQS P0005 T02300221
K66R 241555Z AUTO 00000KT 7SM TSRA SCT075 OVC090 23/22 A3008 RMK AO2 LTG DSNT E THRU W P0002 T02300221
K66R 241535Z AUTO 03005KT 10SM TS SCT006 SCT018 OVC065 24/23 A3007 RMK AO2 LTG DSNT ALQS T02360226
K66R 241515Z AUTO 01006KT 10SM TS SCT006 BKN010 OVC095 24/23 A3007 RMK AO2 LTG DSNT ALQS T02370228
K66R 241455Z AUTO 01003KT 10SM -TSDZ BKN030 BKN043 OVC065 24/23 A3006 RMK AO2 LTG DSNT ALQS P0009 60010 T02380230
K66R 241435Z AUTO 35004KT 10SM TSRA SCT031 BKN050 OVC065 24/23 A3002 RMK AO2 LTG DSNT ALQS P0009 T02360227
K66R 241415Z AUTO 34005KT 7SM TSRA SCT021 BKN042 OVC049 23/22 A3003 RMK AO2 LTG DSNT W THRU E P0005 T02310222
K66R 241355Z AUTO 24009G15KT 5SM VCTSRA SCT003 BKN024 OVC033 24/23 A3002 RMK AO2 LTG DSNT ALQS P0001 T02360226
K66R 241335Z AUTO 00000KT 4SM TS BR BKN003 OVC008 26/25 A3000 RMK AO2 LTG DSNT NE E AND SW T02600250
K66R 241315Z AUTO 00000KT 1 1/4SM -VCTSRA OVC003 26/25 A2999 RMK AO2 LTG DSNT NE THRU S T02580248
K66R 241255Z AUTO 00000KT 3/4SM -VCTSRA OVC003 26/25 A3000 RMK AO2 LTG DSNT ALQS T02550246
K66R 241235Z AUTO 02003KT 1/2SM TS FG OVC003 26/25 A2999 RMK AO2 LTG DSNT NE E AND SW T02550245
K66R 241215Z AUTO 05004KT 1/4SM VCTS FG OVC003 25/24 A2998 RMK AO2 LTG DSNT E THRU SW T02520243
K66R 241155Z AUTO 00000KT 1/4SM VCTS FG OVC003 25/24 A2998 RMK AO2 LTG DSNT E THRU SW T02520242 10260 20247
K66R 241135Z AUTO 00000KT 1/4SM VCTS FG OVC003 25/24 A2999 RMK AO2 LTG DSNT E AND SW T02510242
K66R 241115Z AUTO 00000KT 1/2SM VCTS FG OVC003 25/24 A2998 RMK AO2 LTG DSNT E T02520242
K66R 241055Z AUTO 00000KT 1SM BR OVC003 25/24 A2998 RMK AO2 LTG DSNT E T02520242
K66R 241035Z AUTO 00000KT 1 1/2SM BR OVC003 25/24 A2997 RMK AO2 LTG DSNT E T02530243
K66R 241015Z AUTO 00000KT 1 3/4SM BR OVC003 25/24 A2997 RMK AO2 T02520243
K66R 240955Z AUTO 10003KT 3SM BR OVC003 25/24 A2995 RMK AO2 T02500240
K66R 240935Z AUTO 11003KT 3SM BR BKN005 BKN008 OVC020 25/24 A2993 RMK AO2 LTG DSNT E AND SE T02480238
K66R 240915Z AUTO 00000KT 4SM BR SCT005 SCT009 BKN015 25/24 A2993 RMK AO2 LTG DSNT E T02470238
K66R 240855Z AUTO 00000KT 5SM BR BKN011 BKN017 25/24 A2994 RMK AO2 LTG DSNT E T02500240
K66R 240835Z AUTO 13003KT 4SM BR BKN015 25/24 A2994 RMK AO2 T02480239
K66R 240815Z AUTO 00000KT 5SM BR BKN010 BKN019 25/24 A2994 RMK AO2 LTG DSNT SE T02500240
K66R 240755Z AUTO 00000KT 5SM BR BKN010 OVC019 25/24 A2995 RMK AO2 T02500240
K66R 240735Z AUTO 00000KT 5SM BR SCT010 25/24 A2995 RMK AO2 T02500240
K66R 240715Z AUTO 00000KT 7SM CLR 25/24 A2995 RMK AO2 T02510241
K66R 240655Z AUTO 15003KT 7SM CLR 26/25 A2994 RMK AO2 T02550245
K66R 240635Z AUTO 16003KT 7SM CLR 26/25 A2995 RMK AO2 T02550245
K66R 240615Z AUTO 15003KT 7SM CLR 26/25 A2995 RMK AO2 T02580245
K66R 240555Z AUTO 15004KT 10SM CLR 26/25 A2994 RMK AO2 T02600246 10327 20260 403560253
K66R 240535Z AUTO 15004KT 10SM CLR 26/25 A2994 RMK AO2 T02600245
K66R 240515Z AUTO 15005KT 10SM CLR 26/25 A2993 RMK AO2 T02600245
K66R 240455Z AUTO 15005KT 10SM CLR 26/25 A2992 RMK AO2 T02630245
K66R 240435Z AUTO 15006KT 10SM CLR 26/24 A2992 RMK AO2 T02630243
K66R 240415Z AUTO 15005KT 10SM CLR 27/24 A2992 RMK AO2 T02650241
K66R 240355Z AUTO 15004KT 10SM CLR 27/24 A2991 RMK AO2 T02700241
K66R 240335Z AUTO 16005KT 10SM CLR 27/24 A2990 RMK AO2 T02730242
K66R 240315Z AUTO 15007KT 10SM CLR 28/24 A2989 RMK AO2 T02760241
K66R 240255Z AUTO 15006KT 10SM CLR 28/24 A2988 RMK AO2 T02780240
K66R 240235Z AUTO 15007KT 10SM CLR 28/24 A2987 RMK AO2 T02810238
K66R 240215Z AUTO 15007KT 10SM CLR 29/24 A2986 RMK AO2 T02850235
K66R 240155Z AUTO 15005KT 10SM CLR 29/23 A2985 RMK AO2 T02880230
K66R 240135Z AUTO 16004KT 10SM CLR 30/23 A2985 RMK AO2 T02950228
K66R 240115Z AUTO 15007KT 10SM CLR 30/23 A2983 RMK AO2 T03000228
K66R 240055Z AUTO 14007KT 10SM SCT034 31/23 A2983 RMK AO2 T03060227
K66R 240035Z AUTO 14009KT 10SM SCT036 31/23 A2982 RMK AO2 T03110225
K66R 240015Z AUTO 13009KT 10SM BKN038 33/23 A2981 RMK AO2 T03250225
K66R 232355Z AUTO 16006KT 10SM CLR 33/22 A2981 RMK AO2 T03270217 10356 20327
K66R 232335Z AUTO 15007KT 10SM CLR 33/22 A2981 RMK AO2 T03310215
K66R 232315Z AUTO 18011KT 10SM CLR 34/22 A2981 RMK AO2 T03350215
K66R 232255Z AUTO 17009G15KT 10SM CLR 34/21 A2981 RMK AO2 T03430209
K66R 232235Z AUTO 16008G15KT 10SM CLR 35/21 A2981 RMK AO2 T03450207
K66R 232215Z AUTO 15011G15KT 10SM CLR 35/20 A2981 RMK AO2 T03470204
K66R 232155Z AUTO 15011G15KT 10SM CLR 35/20 A2980 RMK AO2 T03470196
K66R 232135Z AUTO 14010G15KT 10SM CLR 35/21 A2980 RMK AO2 T03540208
K66R 232115Z AUTO 15009G14KT 10SM CLR 36/21 A2981 RMK AO2 T03550209
K66R 232055Z AUTO 15008KT 10SM CLR 35/21 A2981 RMK AO2 T03490206
K66R 232035Z AUTO 15008G16KT 10SM CLR 35/21 A2981 RMK AO2 T03450209
K66R 232015Z AUTO 15010G14KT 10SM CLR 35/21 A2982 RMK AO2 T03480211
K66R 231955Z AUTO 15009G14KT 10SM CLR 35/21 A2982 RMK AO2 T03450214
K66R 231935Z AUTO 14011KT 10SM CLR 35/22 A2982 RMK AO2 T03470218
K66R 231915Z AUTO 14007G15KT 10SM CLR 34/22 A2982 RMK AO2 T03440217
K66R 231855Z AUTO 14009G15KT 10SM CLR 35/22 A2983 RMK AO2 T03460220
K66R 231835Z AUTO 17008KT 10SM SCT040 35/22 A2983 RMK AO2 T03470222
K66R 231815Z AUTO 17008KT 10SM SCT040 35/22 A2984 RMK AO2 T03520223
K66R 231755Z AUTO 17009G14KT 130V190 10SM SCT038 34/21 A2985 RMK AO2 T03430214 10343 20253
K66R 231735Z AUTO 16008KT 10SM SCT038 34/22 A2985 RMK AO2 T03360223
K66R 231715Z AUTO 15007G10KT 10SM CLR 34/23 A2985 RMK AO2 T03350225
K66R 231655Z AUTO 14010G16KT 10SM SCT033 33/23 A2984 RMK AO2 T03310228
K66R 231635Z AUTO 15008G15KT 10SM SCT030 32/23 A2983 RMK AO2 T03230228
K66R 231615Z AUTO 16007KT 10SM SCT028 32/23 A2984 RMK AO2 T03190229
K66R 231555Z AUTO 18010G16KT 10SM BKN028 31/23 A2984 RMK AO2 T03120226
K66R 231535Z AUTO 17012G15KT 10SM BKN026 31/23 A2983 RMK AO2 T03120230
K66R 231515Z AUTO 20009G15KT 10SM BKN024 31/23 A2983 RMK AO2 T03110233
K66R 231455Z AUTO 17012KT 10SM BKN022 29/24 A2982 RMK AO2 LTG DSNT NE T02930238
K66R 231435Z AUTO 16012G18KT 10SM OVC017 29/24 A2982 RMK AO2 T02910241
K66R 231415Z AUTO 17009G15KT 10SM OVC015 28/25 A2982 RMK AO2 T02830245
K66R 231355Z AUTO 17007KT 10SM BKN013 BKN018 BKN024 28/25 A2982 RMK AO2 T02780248
K66R 231335Z AUTO 17006KT 10SM SCT011 SCT019 SCT025 27/25 A2981 RMK AO2 T02710249
K66R 231315Z AUTO 17007KT 10SM SCT008 BKN023 26/25 A2981 RMK AO2 LTG DSNT E T02640247
K66R 231255Z AUTO 15004KT 10SM SCT006 SCT011 BKN023 26/25 A2980 RMK AO2 T02600247
K66R 231235Z AUTO 15005KT 7SM BKN023 26/25 A2980 RMK AO2 T02600249
K66R 231215Z AUTO 14004KT 7SM OVC023 26/25 A2979 RMK AO2 T02550246
K66R 231155Z AUTO 16003KT 7SM OVC023 25/24 A2979 RMK AO2 T02530243 10260 20253
K66R 231135Z AUTO 15003KT 7SM VCTS OVC023 25/24 A2979 RMK AO2 LTG DSNT E T02530243
K66R 231115Z AUTO 15004KT 7SM SCT005 OVC021 25/24 A2978 RMK AO2 T02530244
K66R 231055Z AUTO 15004KT 7SM SCT007 SCT014 OVC021 26/25 A2977 RMK AO2 T02550245
K66R 231035Z AUTO 16004KT 7SM BKN007 BKN014 OVC019 26/25 A2977 RMK AO2 T02550245
K66R 231015Z AUTO 15005KT 7SM BKN007 OVC019 26/25 A2977 RMK AO2 T02550245
K66R 230955Z AUTO 15004KT 7SM BKN007 OVC017 26/25 A2976 RMK AO2 T02550245
K66R 230935Z AUTO 16005KT 7SM BKN007 OVC017 26/25 A2976 RMK AO2 T02550245
K66R 230915Z AUTO 16005KT 7SM BKN007 BKN012 OVC017 26/25 A2977 RMK AO2 T02560246
K66R 230855Z AUTO 15004KT 7SM BKN007 OVC015 26/25 A2976 RMK AO2 T02570247


Page loaded:  20:54 UTC  |   01:54 PM Pacific  |   02:54 PM Mountain  |   03:54 PM Central  |   04:54 PM Eastern

 

ADVISORIES

FORECASTS

FORECASTS

OBSERVATIONS

USER TOOLS

ABOUT US